sensor_id;sensor_type;location;lat;lon;timestamp;P1;durP1;ratioP1;P2;durP2;ratioP2
19535;SDS011;9913;51.168;4.124;2022-12-18T00:00:06;81.67;;;28.13;;
19535;SDS011;9913;51.168;4.124;2022-12-18T00:02:42;95.37;;;30.03;;
19535;SDS011;9913;51.168;4.124;2022-12-18T00:05:12;86.17;;;27.57;;
19535;SDS011;9913;51.168;4.124;2022-12-18T00:07:41;85.57;;;30.23;;
19535;SDS011;9913;51.168;4.124;2022-12-18T00:10:09;89.00;;;30.37;;
19535;SDS011;9913;51.168;4.124;2022-12-18T00:12:44;77.73;;;27.73;;
19535;SDS011;9913;51.168;4.124;2022-12-18T00:15:12;69.93;;;29.50;;
19535;SDS011;9913;51.168;4.124;2022-12-18T00:17:40;80.90;;;29.47;;
19535;SDS011;9913;51.168;4.124;2022-12-18T00:20:09;79.13;;;28.10;;
19535;SDS011;9913;51.168;4.124;2022-12-18T00:22:39;72.47;;;26.93;;
19535;SDS011;9913;51.168;4.124;2022-12-18T00:25:07;66.80;;;27.40;;
19535;SDS011;9913;51.168;4.124;2022-12-18T00:27:36;74.80;;;27.70;;
19535;SDS011;9913;51.168;4.124;2022-12-18T00:30:04;67.93;;;25.93;;
19535;SDS011;9913;51.168;4.124;2022-12-18T00:32:33;67.17;;;25.90;;
19535;SDS011;9913;51.168;4.124;2022-12-18T00:35:01;66.93;;;26.07;;
19535;SDS011;9913;51.168;4.124;2022-12-18T00:37:32;67.13;;;27.77;;
19535;SDS011;9913;51.168;4.124;2022-12-18T00:40:03;67.60;;;26.93;;
19535;SDS011;9913;51.168;4.124;2022-12-18T00:42:32;61.60;;;26.37;;
19535;SDS011;9913;51.168;4.124;2022-12-18T00:45:17;69.23;;;26.07;;
19535;SDS011;9913;51.168;4.124;2022-12-18T00:47:46;67.70;;;24.50;;
19535;SDS011;9913;51.168;4.124;2022-12-18T00:50:14;59.57;;;24.83;;
19535;SDS011;9913;51.168;4.124;2022-12-18T00:52:43;65.13;;;25.30;;
19535;SDS011;9913;51.168;4.124;2022-12-18T00:55:13;63.90;;;24.40;;
19535;SDS011;9913;51.168;4.124;2022-12-18T00:57:42;63.50;;;24.67;;
19535;SDS011;9913;51.168;4.124;2022-12-18T01:00:12;70.53;;;27.00;;
19535;SDS011;9913;51.168;4.124;2022-12-18T01:02:41;64.30;;;26.83;;
19535;SDS011;9913;51.168;4.124;2022-12-18T01:05:11;62.77;;;25.47;;
19535;SDS011;9913;51.168;4.124;2022-12-18T01:07:40;61.93;;;25.27;;
19535;SDS011;9913;51.168;4.124;2022-12-18T01:10:09;59.13;;;25.93;;
19535;SDS011;9913;51.168;4.124;2022-12-18T01:12:41;63.60;;;26.40;;
19535;SDS011;9913;51.168;4.124;2022-12-18T01:15:10;65.87;;;24.60;;
19535;SDS011;9913;51.168;4.124;2022-12-18T01:17:39;56.20;;;24.37;;
19535;SDS011;9913;51.168;4.124;2022-12-18T01:20:08;58.20;;;25.50;;
19535;SDS011;9913;51.168;4.124;2022-12-18T01:22:38;64.07;;;25.37;;
19535;SDS011;9913;51.168;4.124;2022-12-18T01:25:07;71.00;;;25.20;;
19535;SDS011;9913;51.168;4.124;2022-12-18T01:27:37;66.80;;;26.87;;
19535;SDS011;9913;51.168;4.124;2022-12-18T01:30:06;62.70;;;25.40;;
19535;SDS011;9913;51.168;4.124;2022-12-18T01:32:35;65.87;;;27.77;;
19535;SDS011;9913;51.168;4.124;2022-12-18T01:35:04;70.83;;;27.43;;
19535;SDS011;9913;51.168;4.124;2022-12-18T01:37:33;68.53;;;27.37;;
19535;SDS011;9913;51.168;4.124;2022-12-18T01:40:01;64.90;;;24.77;;
19535;SDS011;9913;51.168;4.124;2022-12-18T01:42:30;62.50;;;26.03;;
19535;SDS011;9913;51.168;4.124;2022-12-18T01:45:02;64.27;;;26.20;;
19535;SDS011;9913;51.168;4.124;2022-12-18T01:47:36;61.10;;;26.80;;
19535;SDS011;9913;51.168;4.124;2022-12-18T01:50:08;59.73;;;27.10;;
19535;SDS011;9913;51.168;4.124;2022-12-18T01:52:40;64.50;;;27.03;;
19535;SDS011;9913;51.168;4.124;2022-12-18T01:55:10;70.47;;;26.73;;
19535;SDS011;9913;51.168;4.124;2022-12-18T01:57:40;65.60;;;26.20;;
19535;SDS011;9913;51.168;4.124;2022-12-18T02:00:12;74.90;;;26.47;;
19535;SDS011;9913;51.168;4.124;2022-12-18T02:02:43;61.10;;;24.20;;
19535;SDS011;9913;51.168;4.124;2022-12-18T02:05:13;65.17;;;24.97;;
19535;SDS011;9913;51.168;4.124;2022-12-18T02:07:51;67.40;;;26.10;;
19535;SDS011;9913;51.168;4.124;2022-12-18T02:10:31;67.13;;;25.63;;
19535;SDS011;9913;51.168;4.124;2022-12-18T02:13:07;58.03;;;24.43;;
19535;SDS011;9913;51.168;4.124;2022-12-18T02:15:43;67.43;;;25.57;;
19535;SDS011;9913;51.168;4.124;2022-12-18T02:18:18;59.37;;;23.07;;
19535;SDS011;9913;51.168;4.124;2022-12-18T02:20:52;60.83;;;24.77;;
19535;SDS011;9913;51.168;4.124;2022-12-18T02:23:31;59.00;;;24.70;;
19535;SDS011;9913;51.168;4.124;2022-12-18T02:26:21;50.23;;;22.87;;
19535;SDS011;9913;51.168;4.124;2022-12-18T02:28:55;63.17;;;26.67;;
19535;SDS011;9913;51.168;4.124;2022-12-18T02:31:30;62.50;;;25.37;;
19535;SDS011;9913;51.168;4.124;2022-12-18T02:34:04;54.73;;;24.50;;
19535;SDS011;9913;51.168;4.124;2022-12-18T02:36:38;55.70;;;25.23;;
19535;SDS011;9913;51.168;4.124;2022-12-18T02:39:10;69.03;;;26.50;;
19535;SDS011;9913;51.168;4.124;2022-12-18T02:41:50;67.43;;;25.30;;
19535;SDS011;9913;51.168;4.124;2022-12-18T02:44:20;59.10;;;25.93;;
19535;SDS011;9913;51.168;4.124;2022-12-18T02:46:49;55.60;;;24.80;;
19535;SDS011;9913;51.168;4.124;2022-12-18T02:49:26;55.30;;;24.53;;
19535;SDS011;9913;51.168;4.124;2022-12-18T02:52:05;62.43;;;25.10;;
19535;SDS011;9913;51.168;4.124;2022-12-18T02:54:42;51.67;;;24.13;;
19535;SDS011;9913;51.168;4.124;2022-12-18T02:57:20;58.77;;;23.70;;
19535;SDS011;9913;51.168;4.124;2022-12-18T02:59:58;59.70;;;23.60;;
19535;SDS011;9913;51.168;4.124;2022-12-18T03:02:35;72.40;;;24.93;;
19535;SDS011;9913;51.168;4.124;2022-12-18T03:05:10;61.00;;;24.13;;
19535;SDS011;9913;51.168;4.124;2022-12-18T03:07:45;59.17;;;24.17;;
19535;SDS011;9913;51.168;4.124;2022-12-18T03:10:19;51.63;;;21.70;;
19535;SDS011;9913;51.168;4.124;2022-12-18T03:12:53;54.60;;;23.33;;
19535;SDS011;9913;51.168;4.124;2022-12-18T03:15:27;44.57;;;23.40;;
19535;SDS011;9913;51.168;4.124;2022-12-18T03:18:07;50.73;;;22.17;;
19535;SDS011;9913;51.168;4.124;2022-12-18T03:20:39;55.70;;;23.03;;
19535;SDS011;9913;51.168;4.124;2022-12-18T03:23:14;50.30;;;23.47;;
19535;SDS011;9913;51.168;4.124;2022-12-18T03:25:50;51.60;;;21.27;;
19535;SDS011;9913;51.168;4.124;2022-12-18T03:28:25;56.77;;;22.37;;
19535;SDS011;9913;51.168;4.124;2022-12-18T03:31:02;56.20;;;24.47;;
19535;SDS011;9913;51.168;4.124;2022-12-18T03:33:34;45.77;;;21.53;;
19535;SDS011;9913;51.168;4.124;2022-12-18T03:36:07;53.77;;;21.33;;
19535;SDS011;9913;51.168;4.124;2022-12-18T03:38:37;48.87;;;21.80;;
19535;SDS011;9913;51.168;4.124;2022-12-18T03:41:10;47.67;;;21.10;;
19535;SDS011;9913;51.168;4.124;2022-12-18T03:44:19;48.97;;;21.43;;
19535;SDS011;9913;51.168;4.124;2022-12-18T03:46:55;45.93;;;20.37;;
19535;SDS011;9913;51.168;4.124;2022-12-18T03:49:32;45.43;;;21.00;;
19535;SDS011;9913;51.168;4.124;2022-12-18T03:52:05;42.27;;;17.93;;
19535;SDS011;9913;51.168;4.124;2022-12-18T03:54:39;45.23;;;19.33;;
19535;SDS011;9913;51.168;4.124;2022-12-18T03:57:14;43.73;;;19.80;;
19535;SDS011;9913;51.168;4.124;2022-12-18T03:59:49;45.57;;;18.43;;
19535;SDS011;9913;51.168;4.124;2022-12-18T04:02:24;47.23;;;19.90;;
19535;SDS011;9913;51.168;4.124;2022-12-18T04:04:55;45.97;;;20.67;;
19535;SDS011;9913;51.168;4.124;2022-12-18T04:07:26;41.67;;;18.33;;
19535;SDS011;9913;51.168;4.124;2022-12-18T04:09:57;49.67;;;20.63;;
19535;SDS011;9913;51.168;4.124;2022-12-18T04:12:30;44.10;;;20.90;;
19535;SDS011;9913;51.168;4.124;2022-12-18T04:15:00;39.80;;;18.53;;
19535;SDS011;9913;51.168;4.124;2022-12-18T04:17:28;46.53;;;18.07;;
19535;SDS011;9913;51.168;4.124;2022-12-18T04:19:58;44.47;;;19.70;;
19535;SDS011;9913;51.168;4.124;2022-12-18T04:22:26;40.27;;;16.97;;
19535;SDS011;9913;51.168;4.124;2022-12-18T04:24:58;47.50;;;17.70;;
19535;SDS011;9913;51.168;4.124;2022-12-18T04:27:37;38.47;;;17.57;;
19535;SDS011;9913;51.168;4.124;2022-12-18T04:30:09;43.80;;;18.20;;
19535;SDS011;9913;51.168;4.124;2022-12-18T04:32:38;45.40;;;18.00;;
19535;SDS011;9913;51.168;4.124;2022-12-18T04:35:08;46.63;;;18.00;;
19535;SDS011;9913;51.168;4.124;2022-12-18T04:37:38;38.50;;;17.17;;
19535;SDS011;9913;51.168;4.124;2022-12-18T04:40:07;38.23;;;18.07;;
19535;SDS011;9913;51.168;4.124;2022-12-18T04:42:41;32.50;;;16.27;;
19535;SDS011;9913;51.168;4.124;2022-12-18T04:45:10;40.17;;;17.53;;
19535;SDS011;9913;51.168;4.124;2022-12-18T04:47:39;35.13;;;16.83;;
19535;SDS011;9913;51.168;4.124;2022-12-18T04:50:07;37.67;;;16.03;;
19535;SDS011;9913;51.168;4.124;2022-12-18T04:52:35;39.63;;;17.00;;
19535;SDS011;9913;51.168;4.124;2022-12-18T04:55:04;34.97;;;16.80;;
19535;SDS011;9913;51.168;4.124;2022-12-18T04:57:33;39.43;;;17.53;;
19535;SDS011;9913;51.168;4.124;2022-12-18T05:00:02;45.20;;;18.27;;
19535;SDS011;9913;51.168;4.124;2022-12-18T05:02:32;41.07;;;18.00;;
19535;SDS011;9913;51.168;4.124;2022-12-18T05:05:01;38.63;;;16.57;;
19535;SDS011;9913;51.168;4.124;2022-12-18T05:07:29;36.53;;;16.30;;
19535;SDS011;9913;51.168;4.124;2022-12-18T05:09:57;31.77;;;14.90;;
19535;SDS011;9913;51.168;4.124;2022-12-18T05:12:26;32.03;;;16.47;;
19535;SDS011;9913;51.168;4.124;2022-12-18T05:14:54;31.83;;;15.50;;
19535;SDS011;9913;51.168;4.124;2022-12-18T05:17:22;36.10;;;15.00;;
19535;SDS011;9913;51.168;4.124;2022-12-18T05:19:52;36.10;;;15.07;;
19535;SDS011;9913;51.168;4.124;2022-12-18T05:22:20;30.17;;;15.10;;
19535;SDS011;9913;51.168;4.124;2022-12-18T05:24:48;29.80;;;14.13;;
19535;SDS011;9913;51.168;4.124;2022-12-18T05:27:17;30.40;;;14.17;;
19535;SDS011;9913;51.168;4.124;2022-12-18T05:29:47;34.07;;;15.10;;
19535;SDS011;9913;51.168;4.124;2022-12-18T05:32:15;28.13;;;12.80;;
19535;SDS011;9913;51.168;4.124;2022-12-18T05:34:43;28.33;;;14.13;;
19535;SDS011;9913;51.168;4.124;2022-12-18T05:37:13;29.50;;;12.77;;
19535;SDS011;9913;51.168;4.124;2022-12-18T05:39:42;25.37;;;12.33;;
19535;SDS011;9913;51.168;4.124;2022-12-18T05:42:11;26.63;;;12.80;;
19535;SDS011;9913;51.168;4.124;2022-12-18T05:44:39;24.63;;;12.63;;
19535;SDS011;9913;51.168;4.124;2022-12-18T05:47:08;28.40;;;12.20;;
19535;SDS011;9913;51.168;4.124;2022-12-18T05:49:36;25.17;;;12.00;;
19535;SDS011;9913;51.168;4.124;2022-12-18T05:52:04;30.00;;;12.97;;
19535;SDS011;9913;51.168;4.124;2022-12-18T05:54:34;26.77;;;14.77;;
19535;SDS011;9913;51.168;4.124;2022-12-18T05:57:02;30.20;;;14.13;;
19535;SDS011;9913;51.168;4.124;2022-12-18T05:59:31;26.30;;;14.73;;
19535;SDS011;9913;51.168;4.124;2022-12-18T06:01:59;28.17;;;14.07;;
19535;SDS011;9913;51.168;4.124;2022-12-18T06:04:28;28.00;;;12.83;;
19535;SDS011;9913;51.168;4.124;2022-12-18T06:06:56;29.90;;;12.93;;
19535;SDS011;9913;51.168;4.124;2022-12-18T06:09:24;25.60;;;12.70;;
19535;SDS011;9913;51.168;4.124;2022-12-18T06:11:54;28.60;;;14.13;;
19535;SDS011;9913;51.168;4.124;2022-12-18T06:14:22;26.07;;;12.17;;
19535;SDS011;9913;51.168;4.124;2022-12-18T06:16:51;27.73;;;13.13;;
19535;SDS011;9913;51.168;4.124;2022-12-18T06:19:19;24.30;;;12.50;;
19535;SDS011;9913;51.168;4.124;2022-12-18T06:21:47;24.67;;;12.33;;
19535;SDS011;9913;51.168;4.124;2022-12-18T06:24:17;26.03;;;13.17;;
19535;SDS011;9913;51.168;4.124;2022-12-18T06:26:45;24.90;;;11.70;;
19535;SDS011;9913;51.168;4.124;2022-12-18T06:29:15;26.33;;;12.20;;
19535;SDS011;9913;51.168;4.124;2022-12-18T06:31:43;31.10;;;12.00;;
19535;SDS011;9913;51.168;4.124;2022-12-18T06:34:12;25.30;;;12.53;;
19535;SDS011;9913;51.168;4.124;2022-12-18T06:36:40;24.87;;;12.17;;
19535;SDS011;9913;51.168;4.124;2022-12-18T06:39:08;27.03;;;12.90;;
19535;SDS011;9913;51.168;4.124;2022-12-18T06:41:37;27.97;;;13.27;;
19535;SDS011;9913;51.168;4.124;2022-12-18T06:44:05;29.80;;;14.00;;
19535;SDS011;9913;51.168;4.124;2022-12-18T06:46:35;30.80;;;14.10;;
19535;SDS011;9913;51.168;4.124;2022-12-18T06:49:04;31.13;;;13.70;;
19535;SDS011;9913;51.168;4.124;2022-12-18T06:51:33;27.87;;;13.00;;
19535;SDS011;9913;51.168;4.124;2022-12-18T06:54:01;24.20;;;12.67;;
19535;SDS011;9913;51.168;4.124;2022-12-18T06:56:30;30.83;;;13.43;;
19535;SDS011;9913;51.168;4.124;2022-12-18T06:58:58;27.83;;;13.33;;
19535;SDS011;9913;51.168;4.124;2022-12-18T07:01:27;27.33;;;13.67;;
19535;SDS011;9913;51.168;4.124;2022-12-18T07:03:57;26.53;;;13.93;;
19535;SDS011;9913;51.168;4.124;2022-12-18T07:06:25;33.37;;;14.00;;
19535;SDS011;9913;51.168;4.124;2022-12-18T07:08:54;35.33;;;14.20;;
19535;SDS011;9913;51.168;4.124;2022-12-18T07:11:22;29.10;;;13.17;;
19535;SDS011;9913;51.168;4.124;2022-12-18T07:13:51;27.63;;;14.00;;
19535;SDS011;9913;51.168;4.124;2022-12-18T07:16:20;27.90;;;12.80;;
19535;SDS011;9913;51.168;4.124;2022-12-18T07:18:51;25.80;;;13.23;;
19535;SDS011;9913;51.168;4.124;2022-12-18T07:21:22;27.43;;;12.30;;
19535;SDS011;9913;51.168;4.124;2022-12-18T07:23:51;28.30;;;12.33;;
19535;SDS011;9913;51.168;4.124;2022-12-18T07:26:20;25.00;;;12.03;;
19535;SDS011;9913;51.168;4.124;2022-12-18T07:28:49;22.50;;;10.90;;
19535;SDS011;9913;51.168;4.124;2022-12-18T07:31:18;24.70;;;11.07;;
19535;SDS011;9913;51.168;4.124;2022-12-18T07:33:48;29.43;;;12.50;;
19535;SDS011;9913;51.168;4.124;2022-12-18T07:36:18;26.20;;;12.23;;
19535;SDS011;9913;51.168;4.124;2022-12-18T07:38:48;21.30;;;10.83;;
19535;SDS011;9913;51.168;4.124;2022-12-18T07:41:18;31.80;;;14.13;;
19535;SDS011;9913;51.168;4.124;2022-12-18T07:43:46;25.70;;;12.03;;
19535;SDS011;9913;51.168;4.124;2022-12-18T07:46:15;29.57;;;13.87;;
19535;SDS011;9913;51.168;4.124;2022-12-18T07:48:44;21.27;;;11.60;;
19535;SDS011;9913;51.168;4.124;2022-12-18T07:51:16;20.57;;;12.23;;
19535;SDS011;9913;51.168;4.124;2022-12-18T07:53:45;19.53;;;9.47;;
19535;SDS011;9913;51.168;4.124;2022-12-18T07:56:19;30.03;;;13.07;;
19535;SDS011;9913;51.168;4.124;2022-12-18T07:58:54;20.07;;;10.93;;
19535;SDS011;9913;51.168;4.124;2022-12-18T08:01:22;20.50;;;10.97;;
19535;SDS011;9913;51.168;4.124;2022-12-18T08:03:51;22.70;;;11.27;;
19535;SDS011;9913;51.168;4.124;2022-12-18T08:06:19;21.73;;;11.80;;
19535;SDS011;9913;51.168;4.124;2022-12-18T08:08:50;22.83;;;10.77;;
19535;SDS011;9913;51.168;4.124;2022-12-18T08:11:21;26.10;;;12.73;;
19535;SDS011;9913;51.168;4.124;2022-12-18T08:13:50;27.30;;;11.77;;
19535;SDS011;9913;51.168;4.124;2022-12-18T08:16:19;24.10;;;11.53;;
19535;SDS011;9913;51.168;4.124;2022-12-18T08:18:48;24.63;;;10.47;;
19535;SDS011;9913;51.168;4.124;2022-12-18T08:21:17;21.43;;;10.53;;
19535;SDS011;9913;51.168;4.124;2022-12-18T08:23:47;22.73;;;11.63;;
19535;SDS011;9913;51.168;4.124;2022-12-18T08:26:17;18.63;;;10.73;;
19535;SDS011;9913;51.168;4.124;2022-12-18T08:28:48;21.63;;;9.83;;
19535;SDS011;9913;51.168;4.124;2022-12-18T08:31:17;21.97;;;10.10;;
19535;SDS011;9913;51.168;4.124;2022-12-18T08:33:47;22.27;;;9.97;;
19535;SDS011;9913;51.168;4.124;2022-12-18T08:36:16;21.80;;;10.07;;
19535;SDS011;9913;51.168;4.124;2022-12-18T08:38:45;20.70;;;10.60;;
19535;SDS011;9913;51.168;4.124;2022-12-18T08:41:14;18.03;;;9.93;;
19535;SDS011;9913;51.168;4.124;2022-12-18T08:43:44;21.10;;;10.67;;
19535;SDS011;9913;51.168;4.124;2022-12-18T08:46:35;17.23;;;9.53;;
19535;SDS011;9913;51.168;4.124;2022-12-18T08:49:05;23.70;;;10.87;;
19535;SDS011;9913;51.168;4.124;2022-12-18T08:51:34;20.33;;;9.77;;
19535;SDS011;9913;51.168;4.124;2022-12-18T08:54:04;21.87;;;10.70;;
19535;SDS011;9913;51.168;4.124;2022-12-18T08:56:33;20.73;;;11.00;;
19535;SDS011;9913;51.168;4.124;2022-12-18T08:59:01;18.63;;;10.20;;
19535;SDS011;9913;51.168;4.124;2022-12-18T09:01:31;21.10;;;9.80;;
19535;SDS011;9913;51.168;4.124;2022-12-18T09:04:02;26.17;;;11.83;;
19535;SDS011;9913;51.168;4.124;2022-12-18T09:06:33;21.37;;;9.93;;
19535;SDS011;9913;51.168;4.124;2022-12-18T09:09:02;22.97;;;10.07;;
19535;SDS011;9913;51.168;4.124;2022-12-18T09:11:31;18.23;;;9.27;;
19535;SDS011;9913;51.168;4.124;2022-12-18T09:14:00;20.57;;;9.47;;
19535;SDS011;9913;51.168;4.124;2022-12-18T09:16:30;20.97;;;9.93;;
19535;SDS011;9913;51.168;4.124;2022-12-18T09:19:03;18.50;;;9.13;;
19535;SDS011;9913;51.168;4.124;2022-12-18T09:21:33;17.00;;;9.60;;
19535;SDS011;9913;51.168;4.124;2022-12-18T09:24:03;16.50;;;8.63;;
19535;SDS011;9913;51.168;4.124;2022-12-18T09:26:34;24.63;;;9.90;;
19535;SDS011;9913;51.168;4.124;2022-12-18T09:29:03;17.83;;;9.53;;
19535;SDS011;9913;51.168;4.124;2022-12-18T09:31:33;25.30;;;10.60;;
19535;SDS011;9913;51.168;4.124;2022-12-18T09:34:03;20.00;;;9.67;;
19535;SDS011;9913;51.168;4.124;2022-12-18T09:36:33;18.67;;;10.13;;
19535;SDS011;9913;51.168;4.124;2022-12-18T09:39:02;15.23;;;9.00;;
19535;SDS011;9913;51.168;4.124;2022-12-18T09:41:39;19.93;;;9.20;;
19535;SDS011;9913;51.168;4.124;2022-12-18T09:44:12;22.87;;;10.53;;
19535;SDS011;9913;51.168;4.124;2022-12-18T09:46:49;17.67;;;8.83;;
19535;SDS011;9913;51.168;4.124;2022-12-18T09:49:25;21.73;;;9.23;;
19535;SDS011;9913;51.168;4.124;2022-12-18T09:51:57;15.90;;;9.43;;
19535;SDS011;9913;51.168;4.124;2022-12-18T09:54:33;15.77;;;8.90;;
19535;SDS011;9913;51.168;4.124;2022-12-18T09:57:04;20.37;;;10.00;;
19535;SDS011;9913;51.168;4.124;2022-12-18T09:59:34;20.77;;;10.47;;
19535;SDS011;9913;51.168;4.124;2022-12-18T10:02:13;17.77;;;9.60;;
19535;SDS011;9913;51.168;4.124;2022-12-18T10:04:45;16.90;;;10.03;;
19535;SDS011;9913;51.168;4.124;2022-12-18T10:07:22;20.20;;;9.77;;
19535;SDS011;9913;51.168;4.124;2022-12-18T10:09:57;17.20;;;8.73;;
19535;SDS011;9913;51.168;4.124;2022-12-18T10:12:32;21.00;;;10.10;;
19535;SDS011;9913;51.168;4.124;2022-12-18T10:15:07;21.67;;;9.70;;
19535;SDS011;9913;51.168;4.124;2022-12-18T10:17:44;18.03;;;9.03;;
19535;SDS011;9913;51.168;4.124;2022-12-18T10:20:20;17.03;;;7.97;;
19535;SDS011;9913;51.168;4.124;2022-12-18T10:22:55;17.73;;;8.50;;
19535;SDS011;9913;51.168;4.124;2022-12-18T10:25:28;16.03;;;9.37;;
19535;SDS011;9913;51.168;4.124;2022-12-18T10:28:06;17.93;;;8.93;;
19535;SDS011;9913;51.168;4.124;2022-12-18T10:30:38;14.93;;;8.30;;
19535;SDS011;9913;51.168;4.124;2022-12-18T10:33:08;17.97;;;9.40;;
19535;SDS011;9913;51.168;4.124;2022-12-18T10:35:43;18.40;;;9.47;;
19535;SDS011;9913;51.168;4.124;2022-12-18T10:38:23;17.13;;;9.07;;
19535;SDS011;9913;51.168;4.124;2022-12-18T10:40:54;17.37;;;9.83;;
19535;SDS011;9913;51.168;4.124;2022-12-18T10:43:24;16.67;;;8.83;;
19535;SDS011;9913;51.168;4.124;2022-12-18T10:45:59;17.50;;;9.77;;
19535;SDS011;9913;51.168;4.124;2022-12-18T10:48:38;17.03;;;9.50;;
19535;SDS011;9913;51.168;4.124;2022-12-18T10:51:11;16.93;;;9.33;;
19535;SDS011;9913;51.168;4.124;2022-12-18T10:53:51;20.17;;;9.80;;
19535;SDS011;9913;51.168;4.124;2022-12-18T10:56:23;19.20;;;9.97;;
19535;SDS011;9913;51.168;4.124;2022-12-18T10:58:58;19.63;;;9.97;;
19535;SDS011;9913;51.168;4.124;2022-12-18T11:01:28;17.10;;;9.73;;
19535;SDS011;9913;51.168;4.124;2022-12-18T11:04:16;17.73;;;8.83;;
19535;SDS011;9913;51.168;4.124;2022-12-18T11:06:57;17.50;;;8.80;;
19535;SDS011;9913;51.168;4.124;2022-12-18T11:09:27;16.40;;;9.20;;
19535;SDS011;9913;51.168;4.124;2022-12-18T11:11:58;19.73;;;9.70;;
19535;SDS011;9913;51.168;4.124;2022-12-18T11:14:30;22.63;;;10.67;;
19535;SDS011;9913;51.168;4.124;2022-12-18T11:17:01;20.53;;;11.03;;
19535;SDS011;9913;51.168;4.124;2022-12-18T11:19:52;19.97;;;9.67;;
19535;SDS011;9913;51.168;4.124;2022-12-18T11:22:23;16.63;;;10.53;;
19535;SDS011;9913;51.168;4.124;2022-12-18T11:24:55;17.57;;;10.60;;
19535;SDS011;9913;51.168;4.124;2022-12-18T11:27:49;16.93;;;9.40;;
19535;SDS011;9913;51.168;4.124;2022-12-18T11:30:21;17.20;;;9.20;;
19535;SDS011;9913;51.168;4.124;2022-12-18T11:32:51;21.83;;;10.70;;
19535;SDS011;9913;51.168;4.124;2022-12-18T11:35:25;19.67;;;10.77;;
19535;SDS011;9913;51.168;4.124;2022-12-18T11:38:06;18.73;;;10.43;;
19535;SDS011;9913;51.168;4.124;2022-12-18T11:40:45;20.70;;;10.50;;
19535;SDS011;9913;51.168;4.124;2022-12-18T11:43:20;19.43;;;10.03;;
19535;SDS011;9913;51.168;4.124;2022-12-18T11:45:54;19.67;;;10.77;;
19535;SDS011;9913;51.168;4.124;2022-12-18T11:48:27;16.93;;;9.90;;
19535;SDS011;9913;51.168;4.124;2022-12-18T11:51:01;17.17;;;9.60;;
19535;SDS011;9913;51.168;4.124;2022-12-18T11:53:34;25.13;;;11.90;;
19535;SDS011;9913;51.168;4.124;2022-12-18T11:56:08;17.13;;;10.43;;
19535;SDS011;9913;51.168;4.124;2022-12-18T11:58:56;21.47;;;10.47;;
19535;SDS011;9913;51.168;4.124;2022-12-18T12:01:39;18.73;;;10.57;;
19535;SDS011;9913;51.168;4.124;2022-12-18T12:04:32;22.53;;;11.87;;
19535;SDS011;9913;51.168;4.124;2022-12-18T12:07:21;20.70;;;10.30;;
19535;SDS011;9913;51.168;4.124;2022-12-18T12:10:05;18.70;;;9.67;;
19535;SDS011;9913;51.168;4.124;2022-12-18T12:12:51;19.13;;;9.43;;
19535;SDS011;9913;51.168;4.124;2022-12-18T12:15:30;20.80;;;11.03;;
19535;SDS011;9913;51.168;4.124;2022-12-18T12:18:08;23.50;;;10.37;;
19535;SDS011;9913;51.168;4.124;2022-12-18T12:20:49;18.30;;;10.13;;
19535;SDS011;9913;51.168;4.124;2022-12-18T12:23:30;23.37;;;12.30;;
19535;SDS011;9913;51.168;4.124;2022-12-18T12:26:08;15.70;;;10.20;;
19535;SDS011;9913;51.168;4.124;2022-12-18T12:28:50;24.57;;;11.47;;
19535;SDS011;9913;51.168;4.124;2022-12-18T12:31:33;16.43;;;10.17;;
19535;SDS011;9913;51.168;4.124;2022-12-18T12:34:15;18.13;;;11.33;;
19535;SDS011;9913;51.168;4.124;2022-12-18T12:36:51;20.33;;;10.77;;
19535;SDS011;9913;51.168;4.124;2022-12-18T12:39:30;22.10;;;11.00;;
19535;SDS011;9913;51.168;4.124;2022-12-18T12:42:02;19.13;;;10.83;;
19535;SDS011;9913;51.168;4.124;2022-12-18T12:44:51;17.63;;;9.73;;
19535;SDS011;9913;51.168;4.124;2022-12-18T12:47:23;18.77;;;10.93;;
19535;SDS011;9913;51.168;4.124;2022-12-18T12:49:55;21.10;;;10.73;;
19535;SDS011;9913;51.168;4.124;2022-12-18T12:52:28;21.40;;;10.80;;
19535;SDS011;9913;51.168;4.124;2022-12-18T12:55:01;20.93;;;11.63;;
19535;SDS011;9913;51.168;4.124;2022-12-18T12:57:41;20.43;;;10.57;;
19535;SDS011;9913;51.168;4.124;2022-12-18T13:00:14;19.97;;;11.33;;
19535;SDS011;9913;51.168;4.124;2022-12-18T13:02:48;21.30;;;12.00;;
19535;SDS011;9913;51.168;4.124;2022-12-18T13:05:22;18.90;;;10.77;;
19535;SDS011;9913;51.168;4.124;2022-12-18T13:07:56;19.17;;;10.97;;
19535;SDS011;9913;51.168;4.124;2022-12-18T13:10:33;17.37;;;10.13;;
19535;SDS011;9913;51.168;4.124;2022-12-18T13:13:06;18.00;;;11.03;;
19535;SDS011;9913;51.168;4.124;2022-12-18T13:15:37;24.47;;;13.17;;
19535;SDS011;9913;51.168;4.124;2022-12-18T13:18:14;19.87;;;10.47;;
19535;SDS011;9913;51.168;4.124;2022-12-18T13:20:46;27.83;;;13.13;;
19535;SDS011;9913;51.168;4.124;2022-12-18T13:23:28;18.73;;;10.53;;
19535;SDS011;9913;51.168;4.124;2022-12-18T13:25:59;22.23;;;12.57;;
19535;SDS011;9913;51.168;4.124;2022-12-18T13:28:56;23.13;;;11.30;;
19535;SDS011;9913;51.168;4.124;2022-12-18T13:34:42;18.53;;;10.80;;
19535;SDS011;9913;51.168;4.124;2022-12-18T13:43:23;20.00;;;11.53;;
19535;SDS011;9913;51.168;4.124;2022-12-18T13:46:04;20.80;;;11.30;;
19535;SDS011;9913;51.168;4.124;2022-12-18T13:48:35;20.93;;;11.73;;
19535;SDS011;9913;51.168;4.124;2022-12-18T13:51:07;21.43;;;11.87;;
19535;SDS011;9913;51.168;4.124;2022-12-18T13:53:39;22.20;;;11.20;;
19535;SDS011;9913;51.168;4.124;2022-12-18T13:56:15;20.33;;;11.60;;
19535;SDS011;9913;51.168;4.124;2022-12-18T13:58:44;22.37;;;11.60;;
19535;SDS011;9913;51.168;4.124;2022-12-18T14:01:22;25.13;;;12.27;;
19535;SDS011;9913;51.168;4.124;2022-12-18T14:03:51;20.70;;;11.20;;
19535;SDS011;9913;51.168;4.124;2022-12-18T14:06:37;19.70;;;11.10;;
19535;SDS011;9913;51.168;4.124;2022-12-18T14:09:05;23.93;;;11.80;;
19535;SDS011;9913;51.168;4.124;2022-12-18T14:11:40;22.97;;;12.33;;
19535;SDS011;9913;51.168;4.124;2022-12-18T14:14:14;24.67;;;11.07;;
19535;SDS011;9913;51.168;4.124;2022-12-18T14:16:45;25.43;;;12.50;;
19535;SDS011;9913;51.168;4.124;2022-12-18T14:19:15;23.60;;;12.37;;
19535;SDS011;9913;51.168;4.124;2022-12-18T14:21:45;24.13;;;13.83;;
19535;SDS011;9913;51.168;4.124;2022-12-18T14:24:15;23.17;;;12.23;;
19535;SDS011;9913;51.168;4.124;2022-12-18T14:26:45;28.03;;;13.93;;
19535;SDS011;9913;51.168;4.124;2022-12-18T14:29:20;24.70;;;13.30;;
19535;SDS011;9913;51.168;4.124;2022-12-18T14:32:09;25.23;;;13.40;;
19535;SDS011;9913;51.168;4.124;2022-12-18T14:34:44;24.07;;;14.10;;
19535;SDS011;9913;51.168;4.124;2022-12-18T14:37:13;25.87;;;13.67;;
19535;SDS011;9913;51.168;4.124;2022-12-18T14:39:53;26.90;;;14.67;;
19535;SDS011;9913;51.168;4.124;2022-12-18T14:42:30;25.50;;;14.10;;
19535;SDS011;9913;51.168;4.124;2022-12-18T14:48:12;27.90;;;14.17;;
19535;SDS011;9913;51.168;4.124;2022-12-18T14:50:55;25.70;;;13.93;;
19535;SDS011;9913;51.168;4.124;2022-12-18T14:53:32;24.73;;;14.03;;
19535;SDS011;9913;51.168;4.124;2022-12-18T14:56:03;26.23;;;14.37;;
19535;SDS011;9913;51.168;4.124;2022-12-18T14:58:44;26.37;;;13.40;;
19535;SDS011;9913;51.168;4.124;2022-12-18T15:01:18;24.57;;;13.87;;
19535;SDS011;9913;51.168;4.124;2022-12-18T15:03:51;29.73;;;14.63;;
19535;SDS011;9913;51.168;4.124;2022-12-18T15:06:24;27.37;;;14.93;;
19535;SDS011;9913;51.168;4.124;2022-12-18T15:08:57;26.27;;;14.03;;
19535;SDS011;9913;51.168;4.124;2022-12-18T15:11:27;28.83;;;14.17;;
19535;SDS011;9913;51.168;4.124;2022-12-18T15:13:59;31.07;;;15.03;;
19535;SDS011;9913;51.168;4.124;2022-12-18T15:16:50;26.77;;;13.17;;
19535;SDS011;9913;51.168;4.124;2022-12-18T15:19:22;29.97;;;15.23;;